sensor_id;sensor_type;location;lat;lon;timestamp;P1;durP1;ratioP1;P2;durP2;ratioP2
56073;SDS011;41950;55.840;37.442;2023-03-14T00:01:47;3.30;;;1.70;;
56073;SDS011;41950;55.840;37.442;2023-03-14T00:04:14;3.33;;;1.60;;
56073;SDS011;41950;55.840;37.442;2023-03-14T00:06:40;4.63;;;1.52;;
56073;SDS011;41950;55.840;37.442;2023-03-14T00:09:06;3.70;;;2.03;;
56073;SDS011;41950;55.840;37.442;2023-03-14T00:11:31;4.13;;;1.70;;
56073;SDS011;41950;55.840;37.442;2023-03-14T00:13:57;3.50;;;1.75;;
56073;SDS011;41950;55.840;37.442;2023-03-14T00:16:24;4.32;;;1.80;;
56073;SDS011;41950;55.840;37.442;2023-03-14T00:18:50;3.10;;;1.40;;
56073;SDS011;41950;55.840;37.442;2023-03-14T00:21:16;3.92;;;1.60;;
56073;SDS011;41950;55.840;37.442;2023-03-14T00:23:42;3.67;;;1.83;;
56073;SDS011;41950;55.840;37.442;2023-03-14T00:26:09;4.65;;;1.77;;
56073;SDS011;41950;55.840;37.442;2023-03-14T00:28:39;3.22;;;1.55;;
56073;SDS011;41950;55.840;37.442;2023-03-14T00:31:06;4.03;;;1.88;;
56073;SDS011;41950;55.840;37.442;2023-03-14T00:33:33;3.38;;;1.80;;
56073;SDS011;41950;55.840;37.442;2023-03-14T00:36:00;3.88;;;2.10;;
56073;SDS011;41950;55.840;37.442;2023-03-14T00:38:30;4.25;;;1.85;;
56073;SDS011;41950;55.840;37.442;2023-03-14T00:40:57;3.15;;;1.63;;
56073;SDS011;41950;55.840;37.442;2023-03-14T00:43:23;5.30;;;1.88;;
56073;SDS011;41950;55.840;37.442;2023-03-14T00:45:49;3.28;;;1.70;;
56073;SDS011;41950;55.840;37.442;2023-03-14T00:48:16;3.67;;;1.83;;
56073;SDS011;41950;55.840;37.442;2023-03-14T00:50:43;3.90;;;1.98;;
56073;SDS011;41950;55.840;37.442;2023-03-14T00:53:09;4.43;;;2.20;;
56073;SDS011;41950;55.840;37.442;2023-03-14T00:55:38;4.45;;;2.00;;
56073;SDS011;41950;55.840;37.442;2023-03-14T00:58:05;3.92;;;1.75;;
56073;SDS011;41950;55.840;37.442;2023-03-14T01:00:31;4.43;;;2.05;;
56073;SDS011;41950;55.840;37.442;2023-03-14T01:02:57;4.35;;;1.80;;
56073;SDS011;41950;55.840;37.442;2023-03-14T01:05:22;5.05;;;2.33;;
56073;SDS011;41950;55.840;37.442;2023-03-14T01:07:49;6.30;;;2.25;;
56073;SDS011;41950;55.840;37.442;2023-03-14T01:10:14;4.85;;;2.47;;
56073;SDS011;41950;55.840;37.442;2023-03-14T01:12:40;4.55;;;2.50;;
56073;SDS011;41950;55.840;37.442;2023-03-14T01:15:06;3.03;;;2.00;;
56073;SDS011;41950;55.840;37.442;2023-03-14T01:17:32;6.10;;;2.90;;
56073;SDS011;41950;55.840;37.442;2023-03-14T01:19:59;4.80;;;2.50;;
56073;SDS011;41950;55.840;37.442;2023-03-14T01:22:25;2.83;;;1.70;;
56073;SDS011;41950;55.840;37.442;2023-03-14T01:24:50;5.15;;;3.08;;
56073;SDS011;41950;55.840;37.442;2023-03-14T01:27:16;5.05;;;2.92;;
56073;SDS011;41950;55.840;37.442;2023-03-14T01:29:42;4.90;;;2.90;;
56073;SDS011;41950;55.840;37.442;2023-03-14T01:32:07;5.70;;;3.17;;
56073;SDS011;41950;55.840;37.442;2023-03-14T01:34:33;4.22;;;2.33;;
56073;SDS011;41950;55.840;37.442;2023-03-14T01:36:59;4.72;;;3.17;;
56073;SDS011;41950;55.840;37.442;2023-03-14T01:39:24;5.18;;;2.83;;
56073;SDS011;41950;55.840;37.442;2023-03-14T01:41:50;6.65;;;3.60;;
56073;SDS011;41950;55.840;37.442;2023-03-14T01:44:16;4.05;;;2.03;;
56073;SDS011;41950;55.840;37.442;2023-03-14T01:46:42;6.90;;;3.70;;
56073;SDS011;41950;55.840;37.442;2023-03-14T01:49:17;5.78;;;3.08;;
56073;SDS011;41950;55.840;37.442;2023-03-14T01:54:42;4.47;;;2.72;;
56073;SDS011;41950;55.840;37.442;2023-03-14T01:57:21;4.93;;;2.15;;
56073;SDS011;41950;55.840;37.442;2023-03-14T01:59:52;6.47;;;3.80;;
56073;SDS011;41950;55.840;37.442;2023-03-14T02:02:22;5.00;;;3.17;;
56073;SDS011;41950;55.840;37.442;2023-03-14T02:04:51;6.32;;;4.00;;
56073;SDS011;41950;55.840;37.442;2023-03-14T02:07:33;5.63;;;3.45;;
56073;SDS011;41950;55.840;37.442;2023-03-14T02:10:00;6.43;;;3.27;;
56073;SDS011;41950;55.840;37.442;2023-03-14T02:12:29;5.70;;;3.50;;
56073;SDS011;41950;55.840;37.442;2023-03-14T02:14:55;7.13;;;3.30;;
56073;SDS011;41950;55.840;37.442;2023-03-14T02:17:20;5.25;;;3.03;;
56073;SDS011;41950;55.840;37.442;2023-03-14T02:20:07;6.78;;;3.65;;
56073;SDS011;41950;55.840;37.442;2023-03-14T02:22:36;7.03;;;3.80;;
56073;SDS011;41950;55.840;37.442;2023-03-14T02:27:32;4.80;;;2.63;;
56073;SDS011;41950;55.840;37.442;2023-03-14T02:30:00;3.90;;;2.45;;
56073;SDS011;41950;55.840;37.442;2023-03-14T02:32:29;5.10;;;2.92;;
56073;SDS011;41950;55.840;37.442;2023-03-14T02:34:58;2.70;;;1.70;;
56073;SDS011;41950;55.840;37.442;2023-03-14T02:37:27;5.50;;;4.00;;
56073;SDS011;41950;55.840;37.442;2023-03-14T02:40:04;4.22;;;2.83;;
56073;SDS011;41950;55.840;37.442;2023-03-14T02:42:30;6.45;;;3.92;;
56073;SDS011;41950;55.840;37.442;2023-03-14T02:45:00;7.32;;;4.55;;
56073;SDS011;41950;55.840;37.442;2023-03-14T02:47:49;7.43;;;4.03;;
56073;SDS011;41950;55.840;37.442;2023-03-14T02:50:23;7.30;;;4.03;;
56073;SDS011;41950;55.840;37.442;2023-03-14T02:52:54;5.25;;;3.33;;
56073;SDS011;41950;55.840;37.442;2023-03-14T02:55:20;5.63;;;3.03;;
56073;SDS011;41950;55.840;37.442;2023-03-14T02:57:49;5.07;;;2.97;;
56073;SDS011;41950;55.840;37.442;2023-03-14T03:00:15;7.55;;;5.07;;
56073;SDS011;41950;55.840;37.442;2023-03-14T03:02:41;7.03;;;4.68;;
56073;SDS011;41950;55.840;37.442;2023-03-14T03:05:07;8.30;;;5.57;;
56073;SDS011;41950;55.840;37.442;2023-03-14T03:07:33;8.32;;;5.90;;
56073;SDS011;41950;55.840;37.442;2023-03-14T03:09:59;8.45;;;6.20;;
56073;SDS011;41950;55.840;37.442;2023-03-14T03:12:24;7.50;;;6.13;;
56073;SDS011;41950;55.840;37.442;2023-03-14T03:14:50;8.45;;;6.07;;
56073;SDS011;41950;55.840;37.442;2023-03-14T03:17:16;8.63;;;6.53;;
56073;SDS011;41950;55.840;37.442;2023-03-14T03:19:42;8.30;;;6.82;;
56073;SDS011;41950;55.840;37.442;2023-03-14T03:22:07;7.40;;;6.60;;
56073;SDS011;41950;55.840;37.442;2023-03-14T03:24:33;7.03;;;5.47;;
56073;SDS011;41950;55.840;37.442;2023-03-14T03:26:59;6.95;;;5.72;;
56073;SDS011;41950;55.840;37.442;2023-03-14T03:29:24;7.93;;;6.38;;
56073;SDS011;41950;55.840;37.442;2023-03-14T03:31:50;7.65;;;6.20;;
56073;SDS011;41950;55.840;37.442;2023-03-14T03:34:15;7.97;;;5.43;;
56073;SDS011;41950;55.840;37.442;2023-03-14T03:36:41;5.15;;;3.60;;
56073;SDS011;41950;55.840;37.442;2023-03-14T03:39:07;8.05;;;5.30;;
56073;SDS011;41950;55.840;37.442;2023-03-14T03:41:33;6.57;;;4.18;;
56073;SDS011;41950;55.840;37.442;2023-03-14T03:43:59;7.72;;;5.13;;
56073;SDS011;41950;55.840;37.442;2023-03-14T03:46:24;8.05;;;6.07;;
56073;SDS011;41950;55.840;37.442;2023-03-14T03:48:54;8.38;;;5.53;;
56073;SDS011;41950;55.840;37.442;2023-03-14T03:51:20;8.38;;;6.32;;
56073;SDS011;41950;55.840;37.442;2023-03-14T03:53:45;7.20;;;5.45;;
56073;SDS011;41950;55.840;37.442;2023-03-14T03:56:11;4.72;;;3.30;;
56073;SDS011;41950;55.840;37.442;2023-03-14T03:58:37;7.20;;;5.63;;
56073;SDS011;41950;55.840;37.442;2023-03-14T04:01:04;7.95;;;5.95;;
56073;SDS011;41950;55.840;37.442;2023-03-14T04:03:31;6.80;;;4.60;;
56073;SDS011;41950;55.840;37.442;2023-03-14T04:05:58;7.82;;;5.20;;
56073;SDS011;41950;55.840;37.442;2023-03-14T04:08:27;8.05;;;6.07;;
56073;SDS011;41950;55.840;37.442;2023-03-14T04:10:54;8.43;;;6.18;;
56073;SDS011;41950;55.840;37.442;2023-03-14T04:13:21;9.18;;;5.95;;
56073;SDS011;41950;55.840;37.442;2023-03-14T04:15:47;7.63;;;5.68;;
56073;SDS011;41950;55.840;37.442;2023-03-14T04:18:12;8.25;;;5.50;;
56073;SDS011;41950;55.840;37.442;2023-03-14T04:20:38;9.02;;;5.40;;
56073;SDS011;41950;55.840;37.442;2023-03-14T04:23:03;7.00;;;5.10;;
56073;SDS011;41950;55.840;37.442;2023-03-14T04:25:29;7.32;;;5.43;;
56073;SDS011;41950;55.840;37.442;2023-03-14T04:27:55;8.70;;;4.97;;
56073;SDS011;41950;55.840;37.442;2023-03-14T04:30:20;9.65;;;5.70;;
56073;SDS011;41950;55.840;37.442;2023-03-14T04:32:47;7.60;;;6.10;;
56073;SDS011;41950;55.840;37.442;2023-03-14T04:35:12;9.35;;;5.72;;
56073;SDS011;41950;55.840;37.442;2023-03-14T04:37:38;7.28;;;5.57;;
56073;SDS011;41950;55.840;37.442;2023-03-14T04:40:05;7.28;;;5.43;;
56073;SDS011;41950;55.840;37.442;2023-03-14T04:42:31;9.32;;;6.05;;
56073;SDS011;41950;55.840;37.442;2023-03-14T04:44:57;4.82;;;3.78;;
56073;SDS011;41950;55.840;37.442;2023-03-14T04:47:23;7.97;;;5.80;;
56073;SDS011;41950;55.840;37.442;2023-03-14T04:49:49;6.85;;;5.03;;
56073;SDS011;41950;55.840;37.442;2023-03-14T04:52:14;8.43;;;5.75;;
56073;SDS011;41950;55.840;37.442;2023-03-14T04:54:40;7.18;;;5.22;;
56073;SDS011;41950;55.840;37.442;2023-03-14T04:57:06;7.93;;;6.00;;
56073;SDS011;41950;55.840;37.442;2023-03-14T04:59:31;7.60;;;5.70;;
56073;SDS011;41950;55.840;37.442;2023-03-14T05:01:57;7.57;;;5.70;;
56073;SDS011;41950;55.840;37.442;2023-03-14T05:04:22;7.78;;;5.00;;
56073;SDS011;41950;55.840;37.442;2023-03-14T05:06:48;7.22;;;5.60;;
56073;SDS011;41950;55.840;37.442;2023-03-14T05:09:14;6.65;;;5.20;;
56073;SDS011;41950;55.840;37.442;2023-03-14T05:11:40;7.85;;;5.15;;
56073;SDS011;41950;55.840;37.442;2023-03-14T05:14:06;7.63;;;5.50;;
56073;SDS011;41950;55.840;37.442;2023-03-14T05:16:32;8.93;;;5.72;;
56073;SDS011;41950;55.840;37.442;2023-03-14T05:18:57;5.22;;;3.85;;
56073;SDS011;41950;55.840;37.442;2023-03-14T05:21:23;8.23;;;5.65;;
56073;SDS011;41950;55.840;37.442;2023-03-14T05:23:48;8.77;;;5.20;;
56073;SDS011;41950;55.840;37.442;2023-03-14T05:26:14;7.88;;;5.00;;
56073;SDS011;41950;55.840;37.442;2023-03-14T05:28:42;8.50;;;5.20;;
56073;SDS011;41950;55.840;37.442;2023-03-14T05:31:08;7.72;;;5.10;;
56073;SDS011;41950;55.840;37.442;2023-03-14T05:33:34;7.10;;;5.28;;
56073;SDS011;41950;55.840;37.442;2023-03-14T05:35:59;6.78;;;4.68;;
56073;SDS011;41950;55.840;37.442;2023-03-14T05:38:25;5.45;;;3.35;;
56073;SDS011;41950;55.840;37.442;2023-03-14T05:40:51;7.68;;;4.30;;
56073;SDS011;41950;55.840;37.442;2023-03-14T05:43:16;8.77;;;5.38;;
56073;SDS011;41950;55.840;37.442;2023-03-14T05:45:42;8.88;;;5.38;;
56073;SDS011;41950;55.840;37.442;2023-03-14T05:48:08;6.25;;;4.50;;
56073;SDS011;41950;55.840;37.442;2023-03-14T05:50:34;6.43;;;4.97;;
56073;SDS011;41950;55.840;37.442;2023-03-14T05:53:00;5.60;;;4.10;;
56073;SDS011;41950;55.840;37.442;2023-03-14T05:55:25;6.72;;;4.55;;
56073;SDS011;41950;55.840;37.442;2023-03-14T05:57:52;6.57;;;4.60;;
56073;SDS011;41950;55.840;37.442;2023-03-14T06:00:19;6.05;;;3.80;;
56073;SDS011;41950;55.840;37.442;2023-03-14T06:02:44;6.15;;;3.95;;
56073;SDS011;41950;55.840;37.442;2023-03-14T06:05:10;6.18;;;3.38;;
56073;SDS011;41950;55.840;37.442;2023-03-14T06:07:36;7.22;;;4.35;;
56073;SDS011;41950;55.840;37.442;2023-03-14T06:10:02;6.03;;;3.97;;
56073;SDS011;41950;55.840;37.442;2023-03-14T06:12:29;5.95;;;3.83;;
56073;SDS011;41950;55.840;37.442;2023-03-14T06:14:54;6.70;;;4.43;;
56073;SDS011;41950;55.840;37.442;2023-03-14T06:17:20;5.95;;;3.58;;
56073;SDS011;41950;55.840;37.442;2023-03-14T06:19:45;4.60;;;3.45;;
56073;SDS011;41950;55.840;37.442;2023-03-14T06:22:11;5.53;;;3.08;;
56073;SDS011;41950;55.840;37.442;2023-03-14T06:24:37;6.07;;;3.63;;
56073;SDS011;41950;55.840;37.442;2023-03-14T06:27:02;4.78;;;2.92;;
56073;SDS011;41950;55.840;37.442;2023-03-14T06:29:29;7.07;;;3.45;;
56073;SDS011;41950;55.840;37.442;2023-03-14T06:31:57;7.50;;;4.13;;
56073;SDS011;41950;55.840;37.442;2023-03-14T06:34:23;8.05;;;3.65;;
56073;SDS011;41950;55.840;37.442;2023-03-14T06:36:49;6.93;;;3.08;;
56073;SDS011;41950;55.840;37.442;2023-03-14T06:39:14;8.07;;;4.13;;
56073;SDS011;41950;55.840;37.442;2023-03-14T06:41:40;6.80;;;4.10;;
56073;SDS011;41950;55.840;37.442;2023-03-14T06:44:06;7.50;;;3.70;;
56073;SDS011;41950;55.840;37.442;2023-03-14T06:46:31;7.95;;;4.28;;
56073;SDS011;41950;55.840;37.442;2023-03-14T06:48:57;7.10;;;4.10;;
56073;SDS011;41950;55.840;37.442;2023-03-14T06:51:23;6.93;;;3.90;;
56073;SDS011;41950;55.840;37.442;2023-03-14T06:53:48;6.43;;;3.42;;
56073;SDS011;41950;55.840;37.442;2023-03-14T06:56:14;8.10;;;4.53;;
56073;SDS011;41950;55.840;37.442;2023-03-14T06:58:39;7.63;;;4.60;;
56073;SDS011;41950;55.840;37.442;2023-03-14T07:01:05;6.75;;;3.70;;
56073;SDS011;41950;55.840;37.442;2023-03-14T07:03:32;8.20;;;4.35;;
56073;SDS011;41950;55.840;37.442;2023-03-14T07:05:57;4.47;;;2.95;;
56073;SDS011;41950;55.840;37.442;2023-03-14T07:08:23;6.85;;;3.72;;
56073;SDS011;41950;55.840;37.442;2023-03-14T07:10:49;7.03;;;4.32;;
56073;SDS011;41950;55.840;37.442;2023-03-14T07:13:14;7.63;;;3.40;;
56073;SDS011;41950;55.840;37.442;2023-03-14T07:15:40;6.13;;;3.85;;
56073;SDS011;41950;55.840;37.442;2023-03-14T07:18:06;7.72;;;4.78;;
56073;SDS011;41950;55.840;37.442;2023-03-14T07:20:31;6.35;;;3.65;;
56073;SDS011;41950;55.840;37.442;2023-03-14T07:22:57;7.93;;;4.35;;
56073;SDS011;41950;55.840;37.442;2023-03-14T07:25:24;7.50;;;4.53;;
56073;SDS011;41950;55.840;37.442;2023-03-14T07:27:50;6.13;;;3.63;;
56073;SDS011;41950;55.840;37.442;2023-03-14T07:30:16;7.75;;;5.07;;
56073;SDS011;41950;55.840;37.442;2023-03-14T07:32:42;6.82;;;4.38;;
56073;SDS011;41950;55.840;37.442;2023-03-14T07:35:08;5.32;;;3.10;;
56073;SDS011;41950;55.840;37.442;2023-03-14T07:37:34;7.25;;;3.70;;
56073;SDS011;41950;55.840;37.442;2023-03-14T07:39:59;6.05;;;3.50;;
56073;SDS011;41950;55.840;37.442;2023-03-14T07:42:25;5.90;;;3.28;;
56073;SDS011;41950;55.840;37.442;2023-03-14T07:44:50;8.35;;;3.20;;
56073;SDS011;41950;55.840;37.442;2023-03-14T07:47:16;5.85;;;3.65;;
56073;SDS011;41950;55.840;37.442;2023-03-14T07:49:42;7.18;;;3.92;;
56073;SDS011;41950;55.840;37.442;2023-03-14T07:52:07;4.78;;;2.45;;
56073;SDS011;41950;55.840;37.442;2023-03-14T07:54:33;5.13;;;3.40;;
56073;SDS011;41950;55.840;37.442;2023-03-14T07:56:59;8.20;;;4.05;;
56073;SDS011;41950;55.840;37.442;2023-03-14T07:59:26;3.75;;;2.22;;
56073;SDS011;41950;55.840;37.442;2023-03-14T08:01:52;7.18;;;3.40;;
56073;SDS011;41950;55.840;37.442;2023-03-14T08:04:18;4.80;;;2.78;;
56073;SDS011;41950;55.840;37.442;2023-03-14T08:06:43;6.78;;;3.88;;
56073;SDS011;41950;55.840;37.442;2023-03-14T08:09:09;6.15;;;3.83;;
56073;SDS011;41950;55.840;37.442;2023-03-14T08:11:35;7.07;;;3.60;;
56073;SDS011;41950;55.840;37.442;2023-03-14T08:14:01;5.68;;;3.95;;
56073;SDS011;41950;55.840;37.442;2023-03-14T08:16:27;6.80;;;3.55;;
56073;SDS011;41950;55.840;37.442;2023-03-14T08:18:53;6.00;;;3.38;;
56073;SDS011;41950;55.840;37.442;2023-03-14T08:21:18;6.28;;;3.58;;
56073;SDS011;41950;55.840;37.442;2023-03-14T08:23:44;5.07;;;3.20;;
56073;SDS011;41950;55.840;37.442;2023-03-14T08:26:10;9.00;;;3.78;;
56073;SDS011;41950;55.840;37.442;2023-03-14T08:28:35;7.50;;;3.70;;
56073;SDS011;41950;55.840;37.442;2023-03-14T08:31:01;6.40;;;3.28;;
56073;SDS011;41950;55.840;37.442;2023-03-14T08:33:28;5.78;;;2.78;;
56073;SDS011;41950;55.840;37.442;2023-03-14T08:35:55;5.82;;;2.75;;
56073;SDS011;41950;55.840;37.442;2023-03-14T08:38:22;7.57;;;4.35;;
56073;SDS011;41950;55.840;37.442;2023-03-14T08:40:47;6.63;;;4.05;;
56073;SDS011;41950;55.840;37.442;2023-03-14T08:43:15;5.65;;;3.97;;
56073;SDS011;41950;55.840;37.442;2023-03-14T08:45:40;6.05;;;3.47;;
56073;SDS011;41950;55.840;37.442;2023-03-14T08:48:06;6.50;;;3.63;;
56073;SDS011;41950;55.840;37.442;2023-03-14T08:50:32;4.82;;;2.90;;
56073;SDS011;41950;55.840;37.442;2023-03-14T08:52:58;6.35;;;3.85;;
56073;SDS011;41950;55.840;37.442;2023-03-14T08:55:25;7.35;;;3.42;;
56073;SDS011;41950;55.840;37.442;2023-03-14T08:57:54;6.50;;;3.85;;
56073;SDS011;41950;55.840;37.442;2023-03-14T09:00:20;6.63;;;3.42;;
56073;SDS011;41950;55.840;37.442;2023-03-14T09:02:46;5.20;;;3.20;;
56073;SDS011;41950;55.840;37.442;2023-03-14T09:05:12;8.57;;;3.90;;
56073;SDS011;41950;55.840;37.442;2023-03-14T09:07:38;6.28;;;3.65;;
56073;SDS011;41950;55.840;37.442;2023-03-14T09:10:05;7.18;;;3.58;;
56073;SDS011;41950;55.840;37.442;2023-03-14T09:12:32;5.18;;;3.30;;
56073;SDS011;41950;55.840;37.442;2023-03-14T09:14:58;5.15;;;3.15;;
56073;SDS011;41950;55.840;37.442;2023-03-14T09:17:24;4.30;;;2.60;;
56073;SDS011;41950;55.840;37.442;2023-03-14T09:19:50;7.65;;;3.50;;
56073;SDS011;41950;55.840;37.442;2023-03-14T09:22:16;6.35;;;3.72;;
56073;SDS011;41950;55.840;37.442;2023-03-14T09:24:41;4.90;;;2.88;;
56073;SDS011;41950;55.840;37.442;2023-03-14T09:27:07;5.03;;;3.38;;
56073;SDS011;41950;55.840;37.442;2023-03-14T09:29:33;5.55;;;3.42;;
56073;SDS011;41950;55.840;37.442;2023-03-14T09:31:59;5.82;;;3.08;;
56073;SDS011;41950;55.840;37.442;2023-03-14T09:34:25;6.55;;;3.10;;
56073;SDS011;41950;55.840;37.442;2023-03-14T09:36:51;5.60;;;3.40;;
56073;SDS011;41950;55.840;37.442;2023-03-14T09:39:17;5.25;;;3.58;;
56073;SDS011;41950;55.840;37.442;2023-03-14T09:41:44;5.30;;;2.78;;
56073;SDS011;41950;55.840;37.442;2023-03-14T09:44:16;4.30;;;2.13;;
56073;SDS011;41950;55.840;37.442;2023-03-14T09:46:49;4.35;;;3.40;;
56073;SDS011;41950;55.840;37.442;2023-03-14T09:52:00;4.00;;;2.55;;
56073;SDS011;41950;55.840;37.442;2023-03-14T09:54:31;5.63;;;3.33;;
56073;SDS011;41950;55.840;37.442;2023-03-14T09:57:00;6.35;;;3.17;;
56073;SDS011;41950;55.840;37.442;2023-03-14T09:59:28;6.10;;;4.07;;
56073;SDS011;41950;55.840;37.442;2023-03-14T10:01:56;5.43;;;3.08;;
56073;SDS011;41950;55.840;37.442;2023-03-14T10:04:26;5.50;;;3.80;;
56073;SDS011;41950;55.840;37.442;2023-03-14T10:06:53;4.40;;;2.97;;
56073;SDS011;41950;55.840;37.442;2023-03-14T10:09:22;6.07;;;3.55;;
56073;SDS011;41950;55.840;37.442;2023-03-14T10:11:56;7.25;;;3.55;;
56073;SDS011;41950;55.840;37.442;2023-03-14T10:14:35;6.80;;;4.00;;
56073;SDS011;41950;55.840;37.442;2023-03-14T10:17:07;6.28;;;4.13;;
56073;SDS011;41950;55.840;37.442;2023-03-14T10:19:36;6.70;;;3.67;;
56073;SDS011;41950;55.840;37.442;2023-03-14T10:22:02;6.10;;;3.70;;
56073;SDS011;41950;55.840;37.442;2023-03-14T10:24:31;5.93;;;3.65;;
56073;SDS011;41950;55.840;37.442;2023-03-14T10:27:06;6.63;;;4.28;;
56073;SDS011;41950;55.840;37.442;2023-03-14T10:29:55;7.68;;;3.65;;
56073;SDS011;41950;55.840;37.442;2023-03-14T10:32:36;6.20;;;4.40;;
56073;SDS011;41950;55.840;37.442;2023-03-14T10:37:54;7.55;;;4.05;;
56073;SDS011;41950;55.840;37.442;2023-03-14T10:40:24;6.38;;;3.55;;
56073;SDS011;41950;55.840;37.442;2023-03-14T10:42:53;8.98;;;4.22;;
56073;SDS011;41950;55.840;37.442;2023-03-14T10:45:33;6.18;;;4.05;;
56073;SDS011;41950;55.840;37.442;2023-03-14T10:50:47;5.90;;;3.40;;
56073;SDS011;41950;55.840;37.442;2023-03-14T10:53:19;8.20;;;4.22;;
56073;SDS011;41950;55.840;37.442;2023-03-14T10:55:44;6.53;;;4.00;;
56073;SDS011;41950;55.840;37.442;2023-03-14T11:01:00;5.90;;;3.22;;
56073;SDS011;41950;55.840;37.442;2023-03-14T11:12:23;5.97;;;3.10;;
56073;SDS011;41950;55.840;37.442;2023-03-14T11:17:52;5.63;;;2.92;;
56073;SDS011;41950;55.840;37.442;2023-03-14T11:23:07;5.22;;;3.80;;
56073;SDS011;41950;55.840;37.442;2023-03-14T11:31:07;6.07;;;3.30;;
56073;SDS011;41950;55.840;37.442;2023-03-14T11:33:44;6.10;;;3.50;;
56073;SDS011;41950;55.840;37.442;2023-03-14T11:36:27;5.93;;;3.67;;
56073;SDS011;41950;55.840;37.442;2023-03-14T11:38:58;6.40;;;3.20;;
56073;SDS011;41950;55.840;37.442;2023-03-14T11:43:56;8.30;;;3.65;;
56073;SDS011;41950;55.840;37.442;2023-03-14T11:46:25;6.72;;;3.80;;
56073;SDS011;41950;55.840;37.442;2023-03-14T11:49:08;6.28;;;3.53;;
56073;SDS011;41950;55.840;37.442;2023-03-14T11:51:42;6.57;;;3.78;;
56073;SDS011;41950;55.840;37.442;2023-03-14T11:56:59;6.05;;;3.60;;
56073;SDS011;41950;55.840;37.442;2023-03-14T11:59:44;5.57;;;3.65;;
56073;SDS011;41950;55.840;37.442;2023-03-14T12:02:27;4.18;;;2.92;;
56073;SDS011;41950;55.840;37.442;2023-03-14T12:13:22;7.15;;;3.53;;
56073;SDS011;41950;55.840;37.442;2023-03-14T12:15:54;5.05;;;2.95;;
56073;SDS011;41950;55.840;37.442;2023-03-14T12:18:28;6.03;;;3.70;;
56073;SDS011;41950;55.840;37.442;2023-03-14T12:21:06;6.80;;;3.93;;
56073;SDS011;41950;55.840;37.442;2023-03-14T12:28:49;5.45;;;3.80;;
56073;SDS011;41950;55.840;37.442;2023-03-14T12:34:28;5.70;;;2.90;;
56073;SDS011;41950;55.840;37.442;2023-03-14T12:41:48;7.38;;;3.65;;
56073;SDS011;41950;55.840;37.442;2023-03-14T12:47:41;6.57;;;3.50;;
56073;SDS011;41950;55.840;37.442;2023-03-14T12:49:44;6.60;;;3.70;;
56073;SDS011;41950;55.840;37.442;2023-03-14T12:52:13;5.07;;;3.35;;
56073;SDS011;41950;55.840;37.442;2023-03-14T13:00:16;5.15;;;3.40;;
56073;SDS011;41950;55.840;37.442;2023-03-14T13:02:42;5.65;;;3.50;;
56073;SDS011;41950;55.840;37.442;2023-03-14T13:05:15;6.22;;;3.90;;
56073;SDS011;41950;55.840;37.442;2023-03-14T13:12:55;5.53;;;3.28;;
56073;SDS011;41950;55.840;37.442;2023-03-14T13:20:48;5.35;;;3.45;;
56073;SDS011;41950;55.840;37.442;2023-03-14T13:25:50;5.50;;;3.28;;
56073;SDS011;41950;55.840;37.442;2023-03-14T13:28:17;5.90;;;2.80;;
56073;SDS011;41950;55.840;37.442;2023-03-14T13:30:44;7.72;;;3.50;;
56073;SDS011;41950;55.840;37.442;2023-03-14T13:33:12;5.38;;;2.97;;
56073;SDS011;41950;55.840;37.442;2023-03-14T13:35:42;4.93;;;3.05;;
56073;SDS011;41950;55.840;37.442;2023-03-14T13:38:18;4.13;;;2.80;;
56073;SDS011;41950;55.840;37.442;2023-03-14T13:40:46;6.20;;;3.75;;
56073;SDS011;41950;55.840;37.442;2023-03-14T13:43:15;5.10;;;2.97;;
56073;SDS011;41950;55.840;37.442;2023-03-14T13:48:11;5.30;;;3.20;;
56073;SDS011;41950;55.840;37.442;2023-03-14T13:50:43;5.70;;;3.30;;
56073;SDS011;41950;55.840;37.442;2023-03-14T13:53:15;5.97;;;3.30;;
56073;SDS011;41950;55.840;37.442;2023-03-14T13:55:40;5.45;;;3.38;;
56073;SDS011;41950;55.840;37.442;2023-03-14T13:58:10;6.57;;;2.92;;
56073;SDS011;41950;55.840;37.442;2023-03-14T14:00:52;8.00;;;2.90;;
56073;SDS011;41950;55.840;37.442;2023-03-14T14:03:33;7.50;;;3.65;;
56073;SDS011;41950;55.840;37.442;2023-03-14T14:06:03;6.30;;;2.95;;
56073;SDS011;41950;55.840;37.442;2023-03-14T14:08:31;5.70;;;3.65;;
56073;SDS011;41950;55.840;37.442;2023-03-14T14:10:59;7.78;;;3.50;;
56073;SDS011;41950;55.840;37.442;2023-03-14T14:13:29;6.60;;;3.00;;
56073;SDS011;41950;55.840;37.442;2023-03-14T14:15:58;5.47;;;3.40;;
56073;SDS011;41950;55.840;37.442;2023-03-14T14:18:26;4.22;;;2.95;;
56073;SDS011;41950;55.840;37.442;2023-03-14T14:20:54;5.90;;;3.63;;
56073;SDS011;41950;55.840;37.442;2023-03-14T14:23:21;6.03;;;3.17;;
56073;SDS011;41950;55.840;37.442;2023-03-14T14:25:54;5.13;;;3.30;;
56073;SDS011;41950;55.840;37.442;2023-03-14T14:30:58;8.60;;;3.50;;
56073;SDS011;41950;55.840;37.442;2023-03-14T14:33:37;7.75;;;3.10;;
56073;SDS011;41950;55.840;37.442;2023-03-14T14:36:05;6.30;;;3.35;;
56073;SDS011;41950;55.840;37.442;2023-03-14T14:38:48;7.30;;;3.72;;
56073;SDS011;41950;55.840;37.442;2023-03-14T14:41:17;8.05;;;3.63;;
56073;SDS011;41950;55.840;37.442;2023-03-14T14:43:43;5.50;;;3.35;;
56073;SDS011;41950;55.840;37.442;2023-03-14T14:46:09;5.13;;;3.28;;
56073;SDS011;41950;55.840;37.442;2023-03-14T14:48:39;5.78;;;3.53;;
56073;SDS011;41950;55.840;37.442;2023-03-14T14:51:06;4.85;;;2.80;;
56073;SDS011;41950;55.840;37.442;2023-03-14T14:56:06;5.53;;;2.95;;
56073;SDS011;41950;55.840;37.442;2023-03-14T14:58:35;4.43;;;2.63;;
56073;SDS011;41950;55.840;37.442;2023-03-14T15:01:07;8.80;;;3.58;;
56073;SDS011;41950;55.840;37.442;2023-03-14T15:03:41;7.03;;;2.92;;
56073;SDS011;41950;55.840;37.442;2023-03-14T15:06:08;5.43;;;3.20;;
56073;SDS011;41950;55.840;37.442;2023-03-14T15:08:37;5.53;;;3.30;;
56073;SDS011;41950;55.840;37.442;2023-03-14T15:11:03;5.72;;;3.15;;
56073;SDS011;41950;55.840;37.442;2023-03-14T15:13:29;5.35;;;3.70;;
56073;SDS011;41950;55.840;37.442;2023-03-14T15:15:55;5.78;;;3.10;;
56073;SDS011;41950;55.840;37.442;2023-03-14T15:18:22;6.90;;;3.72;;
56073;SDS011;41950;55.840;37.442;2023-03-14T15:20:49;6.32;;;3.30;;
56073;SDS011;41950;55.840;37.442;2023-03-14T15:23:16;5.97;;;3.50;;
56073;SDS011;41950;55.840;37.442;2023-03-14T15:25:44;5.45;;;3.05;;
56073;SDS011;41950;55.840;37.442;2023-03-14T15:28:16;4.15;;;2.90;;
56073;SDS011;41950;55.840;37.442;2023-03-14T15:30:45;5.65;;;4.38;;
56073;SDS011;41950;55.840;37.442;2023-03-14T15:33:11;7.45;;;4.30;;
56073;SDS011;41950;55.840;37.442;2023-03-14T15:35:37;6.88;;;3.90;;
56073;SDS011;41950;55.840;37.442;2023-03-14T15:38:03;7.28;;;2.97;;
56073;SDS011;41950;55.840;37.442;2023-03-14T15:40:29;5.40;;;3.28;;
56073;SDS011;41950;55.840;37.442;2023-03-14T15:42:55;6.00;;;3.30;;
56073;SDS011;41950;55.840;37.442;2023-03-14T15:45:20;4.53;;;3.10;;
56073;SDS011;41950;55.840;37.442;2023-03-14T15:47:46;5.55;;;3.20;;
56073;SDS011;41950;55.840;37.442;2023-03-14T15:50:12;6.53;;;3.47;;
56073;SDS011;41950;55.840;37.442;2023-03-14T15:52:37;5.53;;;3.05;;
56073;SDS011;41950;55.840;37.442;2023-03-14T15:55:03;4.93;;;3.17;;
56073;SDS011;41950;55.840;37.442;2023-03-14T15:57:29;5.65;;;2.90;;
56073;SDS011;41950;55.840;37.442;2023-03-14T15:59:55;6.63;;;3.00;;
56073;SDS011;41950;55.840;37.442;2023-03-14T16:02:21;6.22;;;3.22;;
56073;SDS011;41950;55.840;37.442;2023-03-14T16:04:46;5.70;;;2.50;;
56073;SDS011;41950;55.840;37.442;2023-03-14T16:07:12;5.20;;;2.88;;
56073;SDS011;41950;55.840;37.442;2023-03-14T16:09:38;5.60;;;3.92;;